createdAt,value
2024-05-09T00:02:08.283Z,998.2
2024-05-09T00:04:35.042Z,998.1
2024-05-09T00:07:01.627Z,998.1
2024-05-09T00:09:29.018Z,998.1
2024-05-09T00:11:55.039Z,998.2
2024-05-09T00:14:21.720Z,998.2
2024-05-09T00:19:15.072Z,998.2
2024-05-09T00:21:41.792Z,998.2
2024-05-09T00:24:08.471Z,998.2
2024-05-09T00:26:35.128Z,998.2
2024-05-09T00:29:00.349Z,998.2
2024-05-09T00:31:27.048Z,998.1
2024-05-09T00:33:53.701Z,998.1
2024-05-09T00:36:20.383Z,998.1
2024-05-09T00:38:47.057Z,998.2
2024-05-09T00:41:13.750Z,998.2
2024-05-09T00:43:40.435Z,998.2
2024-05-09T00:46:07.241Z,998.1
2024-05-09T00:48:33.816Z,998.1
2024-05-09T00:51:00.507Z,998
2024-05-09T00:53:27.172Z,998
2024-05-09T00:58:20.573Z,998
2024-05-09T01:00:45.944Z,998
2024-05-09T01:03:12.458Z,997.9
2024-05-09T01:05:39.223Z,998
2024-05-09T01:10:32.499Z,997.9
2024-05-09T01:15:25.899Z,998
2024-05-09T01:17:51.132Z,998
2024-05-09T01:22:43.065Z,998
2024-05-09T01:25:09.721Z,998
2024-05-09T01:27:36.401Z,997.9
2024-05-09T01:30:03.127Z,998.1
2024-05-09T01:32:29.792Z,998
2024-05-09T01:34:56.490Z,998
2024-05-09T01:37:23.173Z,998
2024-05-09T01:39:50.069Z,998
2024-05-09T01:42:16.527Z,997.9
2024-05-09T01:44:43.220Z,998
2024-05-09T01:47:09.909Z,998
2024-05-09T01:49:36.604Z,997.9
2024-05-09T01:52:01.797Z,997.9
2024-05-09T01:54:28.518Z,997.9
2024-05-09T01:56:55.154Z,997.9
2024-05-09T02:01:48.541Z,998
2024-05-09T02:04:13.792Z,998
2024-05-09T02:06:39.013Z,997.9
2024-05-09T02:09:05.689Z,998
2024-05-09T02:11:32.380Z,998
2024-05-09T02:13:59.076Z,998
2024-05-09T02:16:25.750Z,998
2024-05-09T02:18:52.432Z,998
2024-05-09T02:21:19.112Z,998
2024-05-09T02:23:45.805Z,997.9
2024-05-09T02:26:12.499Z,998
2024-05-09T02:31:04.428Z,998
2024-05-09T02:33:29.666Z,998
2024-05-09T02:35:56.354Z,998
2024-05-09T02:38:23.027Z,998
2024-05-09T02:40:49.712Z,998
2024-05-09T02:45:43.071Z,998
2024-05-09T02:48:09.822Z,998
2024-05-09T02:50:36.454Z,998
2024-05-09T02:53:03.188Z,997.9
2024-05-09T02:55:29.822Z,997.9
2024-05-09T03:00:23.189Z,998
2024-05-09T03:02:49.875Z,998
2024-05-09T03:05:15.111Z,998
2024-05-09T03:07:41.798Z,998
2024-05-09T03:10:08.472Z,998
2024-05-09T03:15:01.848Z,998.1
2024-05-09T03:17:28.545Z,998
2024-05-09T03:19:55.228Z,998
2024-05-09T03:22:21.898Z,998
2024-05-09T03:24:48.574Z,998
2024-05-09T03:29:42.030Z,998
2024-05-09T03:32:08.647Z,998
2024-05-09T03:34:35.301Z,998
2024-05-09T03:37:02.012Z,998.1
2024-05-09T03:39:27.223Z,998.1
2024-05-09T03:41:53.951Z,998.1
2024-05-09T03:44:20.602Z,998.1
2024-05-09T03:46:47.298Z,998
2024-05-09T03:49:13.965Z,998
2024-05-09T03:51:40.647Z,998
2024-05-09T03:54:07.387Z,998
2024-05-09T03:59:00.698Z,998
2024-05-09T04:01:28.287Z,998.1
2024-05-09T04:03:54.070Z,998.1
2024-05-09T04:06:20.754Z,998.1
2024-05-09T04:08:47.434Z,998.1
2024-05-09T04:13:39.362Z,998.2
2024-05-09T04:16:06.036Z,998.1
2024-05-09T04:18:32.716Z,998.2
2024-05-09T04:20:59.397Z,998.1
2024-05-09T04:23:26.090Z,998.2
2024-05-09T04:25:52.782Z,998.2
2024-05-09T04:28:19.466Z,998.2
2024-05-09T04:30:46.147Z,998.2
2024-05-09T04:35:39.504Z,998.2
2024-05-09T04:38:06.199Z,998.1
2024-05-09T04:42:59.561Z,998.1
2024-05-09T04:45:24.800Z,998.1
2024-05-09T04:47:51.486Z,998
2024-05-09T04:50:18.164Z,998.1
2024-05-09T04:52:44.910Z,998.1
2024-05-09T04:57:38.247Z,998.2
2024-05-09T05:00:04.929Z,998.2
2024-05-09T05:02:31.571Z,998.2
2024-05-09T05:04:58.273Z,998.2
2024-05-09T05:07:24.958Z,998.2
2024-05-09T05:09:51.670Z,998.1
2024-05-09T05:12:18.337Z,998.2
2024-05-09T05:14:45.024Z,998.3
2024-05-09T05:17:10.245Z,998.3
2024-05-09T05:19:36.934Z,998.2
2024-05-09T05:22:03.653Z,998.3
2024-05-09T05:26:56.983Z,998.3
2024-05-09T05:29:22.726Z,998.3
2024-05-09T05:31:49.424Z,998.3
2024-05-09T05:34:16.103Z,998.3
2024-05-09T05:36:42.789Z,998.3
2024-05-09T05:41:36.159Z,998.4
2024-05-09T05:44:02.850Z,998.3
2024-05-09T05:46:29.539Z,998.3
2024-05-09T05:48:54.755Z,998.3
2024-05-09T05:51:21.480Z,998.4
2024-05-09T05:56:14.804Z,998.4
2024-05-09T05:58:40.054Z,998.4
2024-05-09T06:01:06.735Z,998.4
2024-05-09T06:03:33.427Z,998.3
2024-05-09T06:06:00.103Z,998.4
2024-05-09T06:08:26.816Z,998.4
2024-05-09T06:10:53.479Z,998.4
2024-05-09T06:13:20.158Z,998.4
2024-05-09T06:15:46.933Z,998.4
2024-05-09T06:18:13.518Z,998.4
2024-05-09T06:20:40.197Z,998.4
2024-05-09T06:23:08.079Z,998.3
2024-05-09T06:25:33.578Z,998.3
2024-05-09T06:28:00.278Z,998.4
2024-05-09T06:30:25.489Z,998.4
2024-05-09T06:32:50.741Z,998.4
2024-05-09T06:35:17.422Z,998.3
2024-05-09T06:37:42.689Z,998.4
2024-05-09T06:40:09.347Z,998.4
2024-05-09T06:42:36.026Z,998.3
2024-05-09T06:45:02.713Z,998.3
2024-05-09T06:47:29.476Z,998.3
2024-05-09T06:49:56.083Z,998.3
2024-05-09T06:52:22.787Z,998.3
2024-05-09T06:54:49.454Z,998.3
2024-05-09T06:57:14.711Z,998.4
2024-05-09T06:59:39.932Z,998.3
2024-05-09T07:02:06.772Z,998.4
2024-05-09T07:04:33.407Z,998.4
2024-05-09T07:06:59.990Z,998.3
2024-05-09T07:09:26.738Z,998.4
2024-05-09T07:11:53.354Z,998.3
2024-05-09T07:14:20.163Z,998.4
2024-05-09T07:16:46.750Z,998.4
2024-05-09T07:19:13.470Z,998.3
2024-05-09T07:21:40.105Z,998.3
2024-05-09T07:24:06.776Z,998.3
2024-05-09T07:26:33.488Z,998.3
2024-05-09T07:29:00.143Z,998.3
2024-05-09T07:31:26.856Z,998.2
2024-05-09T07:33:52.092Z,998.2
2024-05-09T07:36:18.871Z,998.2
2024-05-09T07:38:45.434Z,998.2
2024-05-09T07:41:12.106Z,998.2
2024-05-09T07:43:38.855Z,998.2
2024-05-09T07:46:05.485Z,998.1
2024-05-09T07:48:32.163Z,998.1
2024-05-09T07:50:58.862Z,998
2024-05-09T07:53:25.617Z,998.1
2024-05-09T07:55:52.267Z,998
2024-05-09T07:58:18.902Z,998.1
2024-05-09T08:00:45.614Z,998
2024-05-09T08:03:12.276Z,998
2024-05-09T08:05:38.966Z,998
2024-05-09T08:08:04.182Z,998
2024-05-09T08:10:31.006Z,998
2024-05-09T08:12:57.546Z,997.9
2024-05-09T08:15:24.253Z,997.9
2024-05-09T08:17:50.921Z,997.8
2024-05-09T08:22:44.286Z,997.8
2024-05-09T08:25:11.013Z,997.8
2024-05-09T08:27:37.633Z,997.8
2024-05-09T08:30:04.328Z,997.8
2024-05-09T08:32:31.157Z,997.8
2024-05-09T08:34:57.739Z,997.8
2024-05-09T08:37:24.425Z,997.8
2024-05-09T08:39:49.618Z,997.7
2024-05-09T08:42:16.444Z,997.7
2024-05-09T08:44:43.107Z,997.7
2024-05-09T08:47:09.737Z,997.8
2024-05-09T08:49:36.437Z,997.7
2024-05-09T08:52:03.048Z,997.7
2024-05-09T08:54:29.731Z,997.6
2024-05-09T08:56:56.500Z,997.7
2024-05-09T08:59:23.086Z,997.6
2024-05-09T09:01:49.789Z,997.7
2024-05-09T09:06:43.170Z,997.6
2024-05-09T09:09:09.851Z,997.6
2024-05-09T09:11:35.150Z,997.5
2024-05-09T09:14:01.770Z,997.6
2024-05-09T09:16:28.420Z,997.5
2024-05-09T09:18:55.136Z,997.5
2024-05-09T09:21:21.796Z,997.5
2024-05-09T09:23:48.830Z,997.5
2024-05-09T09:26:15.179Z,997.5
2024-05-09T09:28:41.911Z,997.5
2024-05-09T09:31:08.581Z,997.5
2024-05-09T09:33:35.232Z,997.6
2024-05-09T09:36:01.911Z,997.6
2024-05-09T09:38:28.585Z,997.5
2024-05-09T09:40:55.282Z,997.5
2024-05-09T09:43:20.564Z,997.5
2024-05-09T09:45:47.244Z,997.5
2024-05-09T09:48:13.904Z,997.4
2024-05-09T09:50:40.560Z,997.5
2024-05-09T09:53:07.239Z,997.5
2024-05-09T09:55:33.936Z,997.5
2024-05-09T09:58:00.608Z,997.4
2024-05-09T10:00:27.435Z,997.4
2024-05-09T10:02:53.984Z,997.5
2024-05-09T10:05:20.713Z,997.5
2024-05-09T10:07:47.460Z,997.4
2024-05-09T10:10:14.070Z,997.4
2024-05-09T10:12:40.721Z,997.5
2024-05-09T10:15:05.966Z,997.4
2024-05-09T10:17:32.614Z,997.5
2024-05-09T10:19:59.298Z,997.4
2024-05-09T10:22:25.987Z,997.4
2024-05-09T10:24:52.744Z,997.4
2024-05-09T10:27:19.487Z,997.4
2024-05-09T10:29:46.252Z,997.4
2024-05-09T10:32:12.900Z,997.4
2024-05-09T10:34:39.403Z,997.3
2024-05-09T10:37:06.200Z,997.3
2024-05-09T10:39:32.872Z,997.3
2024-05-09T10:41:59.453Z,997.2
2024-05-09T10:44:26.248Z,997.3
2024-05-09T10:46:51.464Z,997.2
2024-05-09T10:49:18.078Z,997.2
2024-05-09T10:51:44.815Z,997.3
2024-05-09T10:54:11.411Z,997.2
2024-05-09T10:56:38.143Z,997.3
2024-05-09T10:59:04.815Z,997.2
2024-05-09T11:01:31.467Z,997.2
2024-05-09T11:03:58.155Z,997.1
2024-05-09T11:06:25.194Z,997.1
2024-05-09T11:08:51.529Z,997
2024-05-09T11:11:18.209Z,997
2024-05-09T11:13:45.056Z,997
2024-05-09T11:16:11.637Z,997
2024-05-09T11:18:36.813Z,997
2024-05-09T11:21:03.510Z,997
2024-05-09T11:23:30.176Z,997
2024-05-09T11:28:23.595Z,996.9
2024-05-09T11:30:50.229Z,996.9
2024-05-09T11:33:16.882Z,996.9
2024-05-09T11:35:43.624Z,996.8
2024-05-09T11:38:10.297Z,996.8
2024-05-09T11:43:03.640Z,996.8
2024-05-09T11:45:30.322Z,996.8
2024-05-09T11:47:57.021Z,996.7
2024-05-09T11:50:23.689Z,996.7
2024-05-09T11:52:48.902Z,996.8
2024-05-09T11:55:15.627Z,996.7
2024-05-09T11:57:43.226Z,996.7
2024-05-09T12:00:08.967Z,996.6
2024-05-09T12:02:35.653Z,996.6
2024-05-09T12:05:02.338Z,996.6
2024-05-09T12:07:28.998Z,996.6
2024-05-09T12:09:55.691Z,996.6
2024-05-09T12:12:22.377Z,996.6
2024-05-09T12:14:49.069Z,996.6
2024-05-09T12:17:15.743Z,996.6
2024-05-09T12:19:42.451Z,996.6
2024-05-09T12:22:09.122Z,996.6
2024-05-09T12:24:34.329Z,996.7
2024-05-09T12:27:01.019Z,996.6
2024-05-09T12:29:27.720Z,996.6
2024-05-09T12:31:54.390Z,996.5
2024-05-09T12:34:21.123Z,996.5
2024-05-09T12:36:47.754Z,996.5
2024-05-09T12:39:14.494Z,996.5
2024-05-09T12:41:41.169Z,996.4
2024-05-09T12:44:07.816Z,996.4
2024-05-09T12:46:34.506Z,996.4
2024-05-09T12:49:01.950Z,996.4
2024-05-09T12:51:27.859Z,996.3
2024-05-09T12:53:54.809Z,996.3
2024-05-09T12:56:19.763Z,996.3
2024-05-09T12:58:46.535Z,996.4
2024-05-09T13:01:13.139Z,996.3
2024-05-09T13:03:39.816Z,996.3
2024-05-09T13:06:06.526Z,996.3
2024-05-09T13:08:33.235Z,996.3
2024-05-09T13:10:59.872Z,996.3
2024-05-09T13:15:53.331Z,996.2
2024-05-09T13:18:19.988Z,996.2
2024-05-09T13:20:46.555Z,996.1
2024-05-09T13:23:13.272Z,996.2
2024-05-09T13:25:39.998Z,996.1
2024-05-09T13:28:05.214Z,996
2024-05-09T13:30:31.863Z,996
2024-05-09T13:32:58.560Z,996
2024-05-09T13:35:25.211Z,995.9
2024-05-09T13:37:51.903Z,996
2024-05-09T13:40:18.577Z,996
2024-05-09T13:42:45.265Z,995.9
2024-05-09T13:45:11.958Z,996
2024-05-09T13:47:38.634Z,995.8
2024-05-09T13:50:05.325Z,995.9
2024-05-09T13:52:32.029Z,995.8
2024-05-09T13:54:58.691Z,995.8
2024-05-09T13:57:25.382Z,995.8
2024-05-09T13:59:50.660Z,995.8
2024-05-09T14:02:17.331Z,995.7
2024-05-09T14:04:43.956Z,995.6
2024-05-09T14:07:10.714Z,995.7
2024-05-09T14:09:35.900Z,995.6
2024-05-09T14:12:02.582Z,995.6
2024-05-09T14:14:29.261Z,995.6
2024-05-09T14:16:56.036Z,995.6
2024-05-09T14:19:22.710Z,995.5
2024-05-09T14:21:49.297Z,995.5
2024-05-09T14:24:16.012Z,995.5
2024-05-09T14:26:42.729Z,995.5
2024-05-09T14:29:09.377Z,995.5
2024-05-09T14:31:36.035Z,995.4
2024-05-09T14:34:02.720Z,995.4
2024-05-09T14:36:29.645Z,995.3
2024-05-09T14:38:56.163Z,995.3
2024-05-09T14:41:21.323Z,995.3
2024-05-09T14:43:48.049Z,995.3
2024-05-09T14:46:14.679Z,995.3
2024-05-09T14:48:41.379Z,995.2
2024-05-09T14:51:08.093Z,995.2
2024-05-09T14:53:34.767Z,995.2
2024-05-09T14:56:01.580Z,995.2
2024-05-09T14:58:28.124Z,995.2
2024-05-09T15:00:54.801Z,995.1
2024-05-09T15:03:21.578Z,995.1
2024-05-09T15:05:48.423Z,995.2
2024-05-09T15:08:14.942Z,995.1
2024-05-09T15:10:41.656Z,995.1
2024-05-09T15:13:06.765Z,995.1
2024-05-09T15:15:33.456Z,995.1
2024-05-09T15:18:00.129Z,995
2024-05-09T15:20:26.836Z,995
2024-05-09T15:22:53.511Z,995
2024-05-09T15:25:20.168Z,995
2024-05-09T15:27:46.860Z,994.9
2024-05-09T15:30:13.542Z,994.9
2024-05-09T15:32:40.310Z,995
2024-05-09T15:35:06.985Z,995
2024-05-09T15:37:33.605Z,995
2024-05-09T15:40:00.328Z,994.9
2024-05-09T15:42:26.965Z,994.9
2024-05-09T15:44:53.654Z,994.9
2024-05-09T15:47:18.877Z,994.9
2024-05-09T15:49:45.568Z,994.9
2024-05-09T15:52:12.306Z,994.9
2024-05-09T15:54:38.958Z,994.9
2024-05-09T15:57:05.599Z,994.9
2024-05-09T15:59:32.290Z,994.9
2024-05-09T16:01:59.385Z,994.8
2024-05-09T16:04:25.791Z,994.8
2024-05-09T16:06:52.366Z,994.8
2024-05-09T16:09:19.085Z,994.8
2024-05-09T16:11:45.722Z,994.8
2024-05-09T16:14:12.401Z,994.8
2024-05-09T16:16:39.084Z,994.8
2024-05-09T16:19:04.349Z,994.8
2024-05-09T16:21:31.008Z,994.8
2024-05-09T16:23:57.902Z,994.7
2024-05-09T16:26:24.638Z,994.7
2024-05-09T16:28:51.066Z,994.8
2024-05-09T16:31:17.766Z,994.8
2024-05-09T16:33:44.418Z,994.7
2024-05-09T16:36:11.192Z,994.7
2024-05-09T16:38:37.848Z,994.8
2024-05-09T16:41:04.554Z,994.8
2024-05-09T16:43:31.165Z,994.7
2024-05-09T16:45:57.841Z,994.7
2024-05-09T16:48:24.539Z,994.7
2024-05-09T16:50:49.768Z,994.7
2024-05-09T16:53:16.574Z,994.7
2024-05-09T16:55:43.124Z,994.7
2024-05-09T16:58:09.808Z,994.7
2024-05-09T17:00:36.547Z,994.7
2024-05-09T17:03:03.177Z,994.6
2024-05-09T17:05:29.864Z,994.6
2024-05-09T17:07:56.540Z,994.6
2024-05-09T17:10:23.341Z,994.6
2024-05-09T17:12:49.925Z,994.6
2024-05-09T17:15:16.651Z,994.6
2024-05-09T17:17:43.284Z,994.6
2024-05-09T17:20:09.964Z,994.6
2024-05-09T17:25:01.929Z,994.6
2024-05-09T17:27:28.563Z,994.6
2024-05-09T17:29:55.320Z,994.6
2024-05-09T17:32:21.970Z,994.6
2024-05-09T17:34:48.624Z,994.6
2024-05-09T17:37:15.323Z,994.6
2024-05-09T17:39:41.989Z,994.5
2024-05-09T17:42:08.685Z,994.7
2024-05-09T17:44:35.468Z,994.7
2024-05-09T17:47:02.286Z,994.7
2024-05-09T17:49:28.728Z,994.7
2024-05-09T17:51:55.427Z,994.7
2024-05-09T17:54:22.098Z,994.7
2024-05-09T17:56:47.398Z,994.7
2024-05-09T17:59:14.000Z,994.7
2024-05-09T18:01:40.683Z,994.7
2024-05-09T18:04:07.602Z,994.7
2024-05-09T18:06:34.207Z,994.6
2024-05-09T18:09:00.734Z,994.7
2024-05-09T18:11:27.746Z,994.7
2024-05-09T18:13:54.199Z,994.7
2024-05-09T18:16:20.819Z,994.7
2024-05-09T18:18:47.475Z,994.7
2024-05-09T18:21:14.208Z,994.7
2024-05-09T18:23:40.839Z,994.7
2024-05-09T18:26:07.527Z,994.7
2024-05-09T18:28:33.832Z,994.8
2024-05-09T18:31:00.508Z,994.7
2024-05-09T18:33:27.185Z,994.8
2024-05-09T18:38:20.586Z,994.8
2024-05-09T18:40:47.239Z,994.8
2024-05-09T18:43:13.998Z,994.8
2024-05-09T18:45:40.662Z,994.8
2024-05-09T18:48:07.307Z,994.8
2024-05-09T18:53:00.659Z,994.9
2024-05-09T18:55:27.345Z,994.8
2024-05-09T18:57:54.032Z,994.9
2024-05-09T19:00:20.733Z,994.9
2024-05-09T19:02:47.390Z,995
2024-05-09T19:05:14.092Z,995
2024-05-09T19:07:40.855Z,995.1
2024-05-09T19:10:07.542Z,995.1
2024-05-09T19:12:32.715Z,995.1
2024-05-09T19:14:59.360Z,995.2
2024-05-09T19:17:26.034Z,995.1
2024-05-09T19:19:52.726Z,995.1
2024-05-09T19:22:19.427Z,995.2
2024-05-09T19:24:46.113Z,995.3
2024-05-09T19:27:12.774Z,995.3
2024-05-09T19:29:39.468Z,995.3
2024-05-09T19:32:06.154Z,995.3
2024-05-09T19:34:33.024Z,995.3
2024-05-09T19:36:59.527Z,995.3
2024-05-09T19:39:26.195Z,995.4
2024-05-09T19:41:52.890Z,995.4
2024-05-09T19:44:19.645Z,995.4
2024-05-09T19:46:44.801Z,995.4
2024-05-09T19:51:38.209Z,995.4
2024-05-09T19:54:04.902Z,995.4
2024-05-09T19:56:31.593Z,995.4
2024-05-09T19:58:58.221Z,995.4
2024-05-09T20:01:24.916Z,995.5
2024-05-09T20:06:18.272Z,995.5
2024-05-09T20:08:44.972Z,995.4
2024-05-09T20:11:11.644Z,995.5
2024-05-09T20:13:38.416Z,995.4
2024-05-09T20:16:05.009Z,995.5
2024-05-09T20:18:31.702Z,995.4
2024-05-09T20:20:58.377Z,995.5
2024-05-09T20:23:25.315Z,995.5
2024-05-09T20:25:50.331Z,995.5
2024-05-09T20:28:16.973Z,995.5
2024-05-09T20:30:43.762Z,995.4
2024-05-09T20:33:10.366Z,995.5
2024-05-09T20:35:37.022Z,995.4
2024-05-09T20:38:03.771Z,995.5
2024-05-09T20:40:30.375Z,995.4
2024-05-09T20:42:57.067Z,995.4
2024-05-09T20:45:23.749Z,995.4
2024-05-09T20:47:50.445Z,995.5
2024-05-09T20:50:17.130Z,995.4
2024-05-09T20:52:43.769Z,995.5
2024-05-09T20:55:10.496Z,995.4
2024-05-09T20:57:35.692Z,995.5
2024-05-09T21:00:02.385Z,995.4
2024-05-09T21:02:29.066Z,995.4
2024-05-09T21:04:55.736Z,995.4
2024-05-09T21:07:22.742Z,995.4
2024-05-09T21:09:49.401Z,995.4
2024-05-09T21:12:15.926Z,995.4
2024-05-09T21:14:42.810Z,995.4
2024-05-09T21:19:35.834Z,995.5
2024-05-09T21:22:02.614Z,995.5
2024-05-09T21:24:29.393Z,995.4
2024-05-09T21:26:56.084Z,995.4
2024-05-09T21:29:22.213Z,995.3
2024-05-09T21:31:48.915Z,995.3
2024-05-09T21:34:15.682Z,995.4
2024-05-09T21:36:42.397Z,995.4
2024-05-09T21:39:08.922Z,995.4
2024-05-09T21:41:35.696Z,995.4
2024-05-09T21:44:02.295Z,995.4
2024-05-09T21:46:29.062Z,995.4
2024-05-09T21:48:55.839Z,995.4
2024-05-09T21:51:22.352Z,995.4
2024-05-09T21:53:49.037Z,995.5
2024-05-09T21:56:15.707Z,995.4
2024-05-09T21:58:42.569Z,995.3
2024-05-09T22:01:09.276Z,995.4
2024-05-09T22:03:34.515Z,995.4
2024-05-09T22:06:01.028Z,995.4
2024-05-09T22:08:27.745Z,995.5
2024-05-09T22:10:54.431Z,995.4
2024-05-09T22:13:21.239Z,995.4
2024-05-09T22:15:47.722Z,995.4
2024-05-09T22:18:14.647Z,995.3
2024-05-09T22:20:39.874Z,995.3
2024-05-09T22:23:06.330Z,995.3
2024-05-09T22:25:33.074Z,995.3
2024-05-09T22:27:59.740Z,995.3
2024-05-09T22:30:26.398Z,995.3
2024-05-09T22:32:53.330Z,995.4
2024-05-09T22:35:19.764Z,995.3
2024-05-09T22:37:46.620Z,995.4
2024-05-09T22:40:13.121Z,995.4
2024-05-09T22:42:39.855Z,995.4
2024-05-09T22:45:06.507Z,995.4
2024-05-09T22:47:33.447Z,995.5
2024-05-09T22:49:59.924Z,995.4
2024-05-09T22:52:26.610Z,995.4
2024-05-09T22:54:51.786Z,995.4
2024-05-09T22:57:18.545Z,995.5
2024-05-09T22:59:45.296Z,995.5
2024-05-09T23:02:11.831Z,995.5
2024-05-09T23:04:38.522Z,995.4
2024-05-09T23:07:05.224Z,995.4
2024-05-09T23:09:32.109Z,995.4
2024-05-09T23:11:58.582Z,995.4
2024-05-09T23:14:25.366Z,995.4
2024-05-09T23:16:51.917Z,995.4
2024-05-09T23:19:18.757Z,995.3
2024-05-09T23:21:45.423Z,995.4
2024-05-09T23:24:10.540Z,995.4
2024-05-09T23:26:37.210Z,995.4
2024-05-09T23:29:03.920Z,995.5
2024-05-09T23:31:30.769Z,995.5
2024-05-09T23:33:57.369Z,995.4
2024-05-09T23:36:24.007Z,995.4
2024-05-09T23:38:50.662Z,995.4
2024-05-09T23:41:17.340Z,995.4
2024-05-09T23:43:44.064Z,995.5
2024-05-09T23:46:10.688Z,995.5
2024-05-09T23:48:37.631Z,995.4
2024-05-09T23:51:04.109Z,995.4
2024-05-09T23:53:30.749Z,995.3
2024-05-09T23:55:55.969Z,995.4
2024-05-09T23:58:22.654Z,995.3
